Time;durP1;ratioP1;P1;durP2;ratioP2;P2;SDS_P1;SDS_P2;PMS_P1;PMS_P2;Temp;Humidity;BMP_temperature;BMP_pressure;BME280_temperature;BME280_humidity;BME280_pressure;Samples;Min_cycle;Max_cycle;Signal;HPM_P1;HPM_P2
2023/08/13 00:01:24;;;;;;;10.00;7.07;;;;;;;;;;5027419;28;20624;-80
2023/08/13 00:03:49;;;;;;;11.93;6.90;;;;;;;;;;5041129;28;20029;-79
2023/08/13 00:06:15;;;;;;;9.60;6.78;;;;;;;;;;5035296;28;20021;-80
2023/08/13 00:08:40;;;;;;;10.77;6.80;;;;;;;;;;5047577;28;20024;-79
2023/08/13 00:11:11;;;;;;;9.25;6.70;;;;;;;;;;5023067;28;20060;-80
2023/08/13 00:13:41;;;;;;;13.02;7.65;;;;;;;;;;5021698;28;20029;-79
2023/08/13 00:16:07;;;;;;;12.80;7.75;;;;;;;;;;5034532;28;20044;-80
2023/08/13 00:18:33;;;;;;;13.00;6.97;;;;;;;;;;5020493;28;20041;-80
2023/08/13 00:20:59;;;;;;;10.55;6.43;;;;;;;;;;5017941;28;20558;-79
2023/08/13 00:23:24;;;;;;;13.48;6.80;;;;;;;;;;5015784;28;20021;-79
2023/08/13 00:25:50;;;;;;;11.45;6.95;;;;;;;;;;5034073;28;20383;-79
2023/08/13 00:28:15;;;;;;;9.63;6.07;;;;;;;;;;5040248;28;20091;-79
2023/08/13 00:30:40;;;;;;;9.52;6.80;;;;;;;;;;5025297;28;20030;-79
2023/08/13 00:33:06;;;;;;;11.45;6.70;;;;;;;;;;5036280;28;20030;-78
2023/08/13 00:35:31;;;;;;;15.70;7.07;;;;;;;;;;5025968;28;20033;-79
2023/08/13 00:37:57;;;;;;;13.38;6.88;;;;;;;;;;5026213;28;20045;-79
2023/08/13 00:40:22;;;;;;;10.65;6.85;;;;;;;;;;5041686;28;20056;-79
2023/08/13 00:42:47;;;;;;;9.75;6.75;;;;;;;;;;5035807;28;20112;-79
2023/08/13 00:45:13;;;;;;;16.40;7.05;;;;;;;;;;5039140;28;20032;-79
2023/08/13 00:47:39;;;;;;;9.98;6.97;;;;;;;;;;5027766;28;20025;-79
2023/08/13 00:50:05;;;;;;;11.70;7.63;;;;;;;;;;5019256;28;20172;-80
2023/08/13 00:52:31;;;;;;;10.70;7.93;;;;;;;;;;5037881;28;20025;-80
2023/08/13 00:54:57;;;;;;;11.75;7.85;;;;;;;;;;5024636;28;20107;-80
2023/08/13 00:57:23;;;;;;;11.40;8.13;;;;;;;;;;5046941;28;20076;-80
2023/08/13 00:59:49;;;;;;;10.35;8.15;;;;;;;;;;5023922;28;20092;-80
2023/08/13 01:02:15;;;;;;;14.13;8.20;;;;;;;;;;5027152;28;20025;-80
2023/08/13 01:04:41;;;;;;;10.05;7.28;;;;;;;;;;5039446;28;20124;-80
2023/08/13 01:07:16;;;;;;;12.98;7.97;;;;;;;;;;5039328;28;20153;-80
2023/08/13 01:09:51;;;;;;;11.70;7.72;;;;;;;;;;5024538;28;20048;-79
2023/08/13 01:12:26;;;;;;;14.15;8.43;;;;;;;;;;5014539;28;20033;-79
2023/08/13 01:15:15;;;;;;;13.70;8.00;;;;;;;;;;5018755;28;20068;-80
2023/08/13 01:17:43;;;;;;;11.40;7.03;;;;;;;;;;5017837;28;20083;-80
2023/08/13 01:20:09;;;;;;;12.85;8.75;;;;;;;;;;5035393;28;20383;-80
2023/08/13 01:22:38;;;;;;;13.30;8.65;;;;;;;;;;5022356;28;20037;-80
2023/08/13 01:25:07;;;;;;;16.42;8.68;;;;;;;;;;5025486;28;20029;-80
2023/08/13 01:27:48;;;;;;;13.73;9.18;;;;;;;;;;5045206;28;20044;-80
2023/08/13 01:30:20;;;;;;;12.38;8.73;;;;;;;;;;5035141;28;20413;-80
2023/08/13 01:33:00;;;;;;;11.93;8.93;;;;;;;;;;5031376;28;20014;-80
2023/08/13 01:35:26;;;;;;;11.23;8.23;;;;;;;;;;5022411;28;20104;-79
2023/08/13 01:37:52;;;;;;;15.68;9.40;;;;;;;;;;5034137;28;20033;-79
2023/08/13 01:40:18;;;;;;;11.18;8.63;;;;;;;;;;5025219;28;20586;-79
2023/08/13 01:42:43;;;;;;;13.60;10.20;;;;;;;;;;5027814;28;20127;-79
2023/08/13 01:45:09;;;;;;;16.75;10.25;;;;;;;;;;5038930;28;20040;-80
2023/08/13 01:47:34;;;;;;;15.13;10.85;;;;;;;;;;5040278;28;20035;-80
2023/08/13 01:49:59;;;;;;;10.88;9.25;;;;;;;;;;5021609;28;20033;-79
2023/08/13 01:52:25;;;;;;;11.88;8.45;;;;;;;;;;5041210;28;20128;-79
2023/08/13 01:54:50;;;;;;;11.00;8.10;;;;;;;;;;5043899;28;20033;-80
2023/08/13 01:57:15;;;;;;;11.82;7.80;;;;;;;;;;5027120;28;20025;-79
2023/08/13 01:59:41;;;;;;;13.52;8.18;;;;;;;;;;5035394;28;20085;-79
2023/08/13 02:02:06;;;;;;;12.95;8.40;;;;;;;;;;5025785;28;20387;-79
2023/08/13 02:04:31;;;;;;;9.68;7.47;;;;;;;;;;5017867;28;20123;-79
2023/08/13 02:06:57;;;;;;;10.75;6.57;;;;;;;;;;5021549;28;20492;-79
2023/08/13 02:09:22;;;;;;;8.75;6.72;;;;;;;;;;5008992;28;20053;-79
2023/08/13 02:11:47;;;;;;;8.38;6.30;;;;;;;;;;5030110;28;20026;-78
2023/08/13 02:14:12;;;;;;;8.68;6.57;;;;;;;;;;5035335;28;20033;-79
2023/08/13 02:16:38;;;;;;;9.20;6.10;;;;;;;;;;5028795;28;20030;-79
2023/08/13 02:19:03;;;;;;;8.25;6.22;;;;;;;;;;5023671;28;20636;-79
2023/08/13 02:21:29;;;;;;;8.05;5.97;;;;;;;;;;5044458;28;20025;-79
2023/08/13 02:23:55;;;;;;;8.38;6.50;;;;;;;;;;5037642;28;20014;-79
2023/08/13 02:26:20;;;;;;;12.32;6.70;;;;;;;;;;5038142;28;20051;-80
2023/08/13 02:28:45;;;;;;;8.00;6.20;;;;;;;;;;5026228;28;20045;-79
2023/08/13 02:31:11;;;;;;;12.73;7.20;;;;;;;;;;5042087;28;20030;-79
2023/08/13 02:33:36;;;;;;;8.63;7.47;;;;;;;;;;5040797;28;20132;-79
2023/08/13 02:36:02;;;;;;;10.15;7.35;;;;;;;;;;5018986;28;20683;-79
2023/08/13 02:38:27;;;;;;;12.07;7.35;;;;;;;;;;5033677;28;20069;-79
2023/08/13 02:40:52;;;;;;;13.40;7.70;;;;;;;;;;5037521;28;20125;-79
2023/08/13 02:43:18;;;;;;;11.18;8.95;;;;;;;;;;5032570;28;20034;-79
2023/08/13 02:45:43;;;;;;;26.13;8.60;;;;;;;;;;5021705;28;20034;-78
2023/08/13 02:48:09;;;;;;;9.82;8.00;;;;;;;;;;5016276;28;20108;-79
2023/08/13 02:50:34;;;;;;;14.73;8.18;;;;;;;;;;5037812;28;20029;-79
2023/08/13 02:53:00;;;;;;;17.77;8.25;;;;;;;;;;5033343;28;20116;-79
2023/08/13 02:55:26;;;;;;;12.32;8.50;;;;;;;;;;5034730;28;20044;-79
2023/08/13 02:57:51;;;;;;;11.95;8.45;;;;;;;;;;5016861;28;20033;-79
2023/08/13 03:00:16;;;;;;;13.75;8.05;;;;;;;;;;5026417;28;20028;-79
2023/08/13 03:02:42;;;;;;;9.57;7.70;;;;;;;;;;5016721;28;20116;-79
2023/08/13 03:05:07;;;;;;;10.10;7.57;;;;;;;;;;5029711;28;20046;-79
2023/08/13 03:07:32;;;;;;;16.15;6.53;;;;;;;;;;5018390;28;20507;-78
2023/08/13 03:09:58;;;;;;;9.68;6.28;;;;;;;;;;5034879;28;20459;-79
2023/08/13 03:12:23;;;;;;;7.18;5.68;;;;;;;;;;5018257;28;20042;-79
2023/08/13 03:14:49;;;;;;;7.22;5.65;;;;;;;;;;5019816;28;20039;-79
2023/08/13 03:17:14;;;;;;;11.68;6.28;;;;;;;;;;5018641;28;20029;-79
2023/08/13 03:19:39;;;;;;;11.40;7.25;;;;;;;;;;5035269;28;20567;-79
2023/08/13 03:22:04;;;;;;;11.98;6.45;;;;;;;;;;5023326;28;20044;-79
2023/08/13 03:24:30;;;;;;;14.20;6.25;;;;;;;;;;5035289;28;20095;-79
2023/08/13 03:26:55;;;;;;;10.68;6.47;;;;;;;;;;5047001;28;20115;-79
2023/08/13 03:29:20;;;;;;;12.70;7.43;;;;;;;;;;5017940;28;20044;-79
2023/08/13 03:31:46;;;;;;;10.85;7.57;;;;;;;;;;5043294;28;20041;-79
2023/08/13 03:34:11;;;;;;;13.07;6.95;;;;;;;;;;5041349;28;20045;-79
2023/08/13 03:36:36;;;;;;;8.73;5.93;;;;;;;;;;5036933;28;20048;-79
2023/08/13 03:39:02;;;;;;;10.18;8.23;;;;;;;;;;5036429;28;20025;-79
2023/08/13 03:41:27;;;;;;;15.75;11.25;;;;;;;;;;5018793;28;20026;-78
2023/08/13 03:43:52;;;;;;;18.33;9.48;;;;;;;;;;5042420;28;20025;-79
2023/08/13 03:46:18;;;;;;;20.10;12.07;;;;;;;;;;5027476;28;20400;-78
2023/08/13 03:48:43;;;;;;;16.13;11.07;;;;;;;;;;5023058;28;20056;-79
2023/08/13 03:51:08;;;;;;;13.02;10.15;;;;;;;;;;5015453;28;20067;-79
2023/08/13 03:53:34;;;;;;;11.10;9.02;;;;;;;;;;5022992;28;20051;-80
2023/08/13 03:55:59;;;;;;;12.60;8.65;;;;;;;;;;5021548;28;20033;-80
2023/08/13 03:58:25;;;;;;;11.30;8.02;;;;;;;;;;5019522;28;20403;-80
2023/08/13 04:00:50;;;;;;;10.30;7.45;;;;;;;;;;5035025;28;20021;-80
2023/08/13 04:03:15;;;;;;;10.68;8.18;;;;;;;;;;5027160;28;20528;-80
2023/08/13 04:05:41;;;;;;;12.07;7.78;;;;;;;;;;5030985;28;20028;-80
2023/08/13 04:08:06;;;;;;;11.68;8.48;;;;;;;;;;5030129;28;20547;-80
2023/08/13 04:10:31;;;;;;;15.65;7.40;;;;;;;;;;5038553;28;20034;-80
2023/08/13 04:12:57;;;;;;;11.35;7.90;;;;;;;;;;5026774;28;20101;-79
2023/08/13 04:15:22;;;;;;;11.30;8.65;;;;;;;;;;5024245;28;20080;-79
2023/08/13 04:17:48;;;;;;;10.68;8.15;;;;;;;;;;5024634;28;20030;-80
2023/08/13 04:20:13;;;;;;;10.98;8.75;;;;;;;;;;5039287;28;20411;-79
2023/08/13 04:22:39;;;;;;;15.40;8.55;;;;;;;;;;5022443;28;20529;-79
2023/08/13 04:25:07;;;;;;;12.88;8.77;;;;;;;;;;5020606;28;20057;-79
2023/08/13 04:27:32;;;;;;;12.70;8.75;;;;;;;;;;5017812;28;20049;-79
2023/08/13 04:29:57;;;;;;;13.55;8.85;;;;;;;;;;5042006;28;20501;-79
2023/08/13 04:32:23;;;;;;;16.17;9.20;;;;;;;;;;5035586;28;20029;-79
2023/08/13 04:34:48;;;;;;;13.60;9.45;;;;;;;;;;5041450;28;20033;-79
2023/08/13 04:37:13;;;;;;;20.55;9.65;;;;;;;;;;5035781;28;20068;-79
2023/08/13 04:39:39;;;;;;;17.33;10.05;;;;;;;;;;5040264;28;20033;-79
2023/08/13 04:42:04;;;;;;;10.23;9.10;;;;;;;;;;5040245;28;20108;-79
2023/08/13 04:44:29;;;;;;;13.32;8.70;;;;;;;;;;5022702;28;20026;-79
2023/08/13 04:46:55;;;;;;;12.05;7.53;;;;;;;;;;5017438;28;20037;-80
2023/08/13 04:49:20;;;;;;;8.70;6.40;;;;;;;;;;5046066;28;20041;-79
2023/08/13 04:51:45;;;;;;;15.23;6.00;;;;;;;;;;5042866;28;20316;-80
2023/08/13 04:54:11;;;;;;;8.90;5.97;;;;;;;;;;5021960;28;21362;-80
2023/08/13 04:56:36;;;;;;;9.75;5.82;;;;;;;;;;5022324;28;20572;-80
2023/08/13 04:59:01;;;;;;;8.55;5.95;;;;;;;;;;5030062;28;20059;-79
2023/08/13 05:01:27;;;;;;;12.10;5.05;;;;;;;;;;5038911;28;20037;-79
2023/08/13 05:03:52;;;;;;;8.00;5.35;;;;;;;;;;5018236;28;20501;-79
2023/08/13 05:06:18;;;;;;;6.65;4.93;;;;;;;;;;5026895;28;20013;-79
2023/08/13 05:08:43;;;;;;;6.38;4.30;;;;;;;;;;5036204;28;20021;-80
2023/08/13 05:11:08;;;;;;;5.20;4.20;;;;;;;;;;5025392;28;20033;-79
2023/08/13 05:13:34;;;;;;;5.68;4.35;;;;;;;;;;5018441;28;20123;-79
2023/08/13 05:15:59;;;;;;;5.72;3.58;;;;;;;;;;5021092;28;20026;-79
2023/08/13 05:18:24;;;;;;;5.88;3.38;;;;;;;;;;5042159;28;20029;-80
2023/08/13 05:20:50;;;;;;;3.78;3.45;;;;;;;;;;5031324;28;20052;-79
2023/08/13 05:23:15;;;;;;;9.00;4.22;;;;;;;;;;5038142;28;20102;-80
2023/08/13 05:25:41;;;;;;;4.32;3.70;;;;;;;;;;5023603;28;20065;-80
2023/08/13 05:28:07;;;;;;;6.65;3.92;;;;;;;;;;5022435;28;20033;-80
2023/08/13 05:30:33;;;;;;;4.28;3.42;;;;;;;;;;5040277;28;20041;-80
2023/08/13 05:32:58;;;;;;;3.67;3.38;;;;;;;;;;5044524;28;20099;-79
2023/08/13 05:35:24;;;;;;;10.10;3.35;;;;;;;;;;5023439;28;20137;-80
2023/08/13 05:37:49;;;;;;;4.35;3.00;;;;;;;;;;5022942;28;20036;-80
2023/08/13 05:40:14;;;;;;;6.43;3.03;;;;;;;;;;5037378;28;20060;-79
2023/08/13 05:42:40;;;;;;;3.50;3.17;;;;;;;;;;5015491;28;20037;-80
2023/08/13 05:45:06;;;;;;;3.03;2.80;;;;;;;;;;5021676;28;20603;-79
2023/08/13 05:47:31;;;;;;;9.73;3.42;;;;;;;;;;5025733;28;20394;-79
2023/08/13 05:49:56;;;;;;;3.70;3.20;;;;;;;;;;5014955;28;20160;-78
2023/08/13 05:52:22;;;;;;;3.67;3.20;;;;;;;;;;5021705;28;20030;-79
2023/08/13 05:54:48;;;;;;;4.03;3.22;;;;;;;;;;5018422;28;20033;-79
2023/08/13 05:57:13;;;;;;;5.13;3.13;;;;;;;;;;5022059;28;20076;-79
2023/08/13 05:59:38;;;;;;;6.72;3.47;;;;;;;;;;5021732;28;20017;-79
2023/08/13 06:02:04;;;;;;;4.28;3.30;;;;;;;;;;5017808;28;20106;-80
2023/08/13 06:04:29;;;;;;;3.42;2.90;;;;;;;;;;5038239;28;20041;-80
2023/08/13 06:06:54;;;;;;;3.38;2.65;;;;;;;;;;5031507;28;20033;-79
2023/08/13 06:09:20;;;;;;;3.10;2.80;;;;;;;;;;5043714;28;20323;-80
2023/08/13 06:11:45;;;;;;;3.97;2.83;;;;;;;;;;5018960;28;20462;-79
2023/08/13 06:14:10;;;;;;;3.90;2.80;;;;;;;;;;5016510;28;20473;-79
2023/08/13 06:16:36;;;;;;;4.07;2.83;;;;;;;;;;5018032;28;20034;-79
2023/08/13 06:19:01;;;;;;;4.45;2.60;;;;;;;;;;5019145;28;20499;-79
2023/08/13 06:21:26;;;;;;;6.00;3.00;;;;;;;;;;5017253;28;20030;-79
2023/08/13 06:23:52;;;;;;;4.13;2.72;;;;;;;;;;5016662;28;20014;-80
2023/08/13 06:26:17;;;;;;;5.78;2.80;;;;;;;;;;5036181;28;20030;-79
2023/08/13 06:28:42;;;;;;;5.68;3.10;;;;;;;;;;5039454;28;20048;-79
2023/08/13 06:31:08;;;;;;;3.65;2.63;;;;;;;;;;5031107;28;20030;-79
2023/08/13 06:33:34;;;;;;;3.33;2.92;;;;;;;;;;5012930;28;20029;-79
2023/08/13 06:35:59;;;;;;;4.15;2.70;;;;;;;;;;5017452;28;20226;-79
2023/08/13 06:38:26;;;;;;;2.90;2.67;;;;;;;;;;5014630;28;20119;-79
2023/08/13 06:40:51;;;;;;;2.95;2.53;;;;;;;;;;5020434;28;20492;-79
2023/08/13 06:43:16;;;;;;;6.65;3.05;;;;;;;;;;5014988;28;20049;-80
2023/08/13 06:45:42;;;;;;;2.83;2.58;;;;;;;;;;5033294;28;20038;-79
2023/08/13 06:48:08;;;;;;;5.15;2.90;;;;;;;;;;5017481;28;20037;-79
2023/08/13 06:50:33;;;;;;;6.03;3.22;;;;;;;;;;5019611;28;20021;-79
2023/08/13 06:52:59;;;;;;;2.72;2.47;;;;;;;;;;5040485;28;20033;-80
2023/08/13 06:55:24;;;;;;;3.90;2.72;;;;;;;;;;5013153;28;20037;-79
2023/08/13 06:57:49;;;;;;;7.28;2.38;;;;;;;;;;5029680;28;20037;-79
2023/08/13 07:00:15;;;;;;;2.60;2.40;;;;;;;;;;5038270;28;20041;-78
2023/08/13 07:02:41;;;;;;;3.38;2.20;;;;;;;;;;5015748;28;20029;-78
2023/08/13 07:05:08;;;;;;;4.63;2.47;;;;;;;;;;5016022;28;20096;-78
2023/08/13 07:07:34;;;;;;;2.83;2.08;;;;;;;;;;5026776;28;20124;-78
2023/08/13 07:10:00;;;;;;;2.30;2.10;;;;;;;;;;5033605;28;20037;-78
2023/08/13 07:12:26;;;;;;;2.20;2.10;;;;;;;;;;5017640;28;20064;-78
2023/08/13 07:14:51;;;;;;;5.10;2.42;;;;;;;;;;5016682;28;20395;-78
2023/08/13 07:17:19;;;;;;;2.33;2.13;;;;;;;;;;5016086;28;20109;-81
2023/08/13 07:19:45;;;;;;;2.45;1.98;;;;;;;;;;5031123;28;20376;-79
2023/08/13 07:22:10;;;;;;;2.63;2.22;;;;;;;;;;5027361;28;20037;-81
2023/08/13 07:24:35;;;;;;;2.22;2.03;;;;;;;;;;5014163;28;20083;-79
2023/08/13 07:27:00;;;;;;;4.43;2.35;;;;;;;;;;5019960;28;20028;-78
2023/08/13 07:29:26;;;;;;;3.30;2.47;;;;;;;;;;5019479;28;20045;-81
2023/08/13 07:31:51;;;;;;;3.13;2.28;;;;;;;;;;5036798;28;20100;-80
2023/08/13 07:34:16;;;;;;;2.28;2.08;;;;;;;;;;5017837;28;20041;-80
2023/08/13 07:36:42;;;;;;;3.42;2.45;;;;;;;;;;5035165;28;20034;-79
2023/08/13 07:39:09;;;;;;;2.83;2.10;;;;;;;;;;5031703;28;20021;-79
2023/08/13 07:41:34;;;;;;;2.72;2.50;;;;;;;;;;5011741;28;20044;-79
2023/08/13 07:44:00;;;;;;;4.70;2.10;;;;;;;;;;5030558;28;20029;-79
2023/08/13 07:46:26;;;;;;;2.75;2.05;;;;;;;;;;5035601;28;20547;-79
2023/08/13 07:48:51;;;;;;;3.55;2.17;;;;;;;;;;5017555;28;20037;-79
2023/08/13 07:51:17;;;;;;;3.05;2.20;;;;;;;;;;5037385;28;20049;-79
2023/08/13 07:53:42;;;;;;;8.80;2.30;;;;;;;;;;5042205;28;20060;-79
2023/08/13 07:56:07;;;;;;;4.07;2.30;;;;;;;;;;5042302;28;20030;-79
2023/08/13 07:58:33;;;;;;;2.85;2.33;;;;;;;;;;5026823;28;20056;-79
2023/08/13 08:00:58;;;;;;;2.83;2.10;;;;;;;;;;5023729;28;20029;-79
2023/08/13 08:03:24;;;;;;;2.72;2.25;;;;;;;;;;5022741;28;20038;-80
2023/08/13 08:05:51;;;;;;;2.95;2.25;;;;;;;;;;5022052;28;20018;-79
2023/08/13 08:08:16;;;;;;;4.75;2.40;;;;;;;;;;5025973;28;20033;-79
2023/08/13 08:10:41;;;;;;;2.50;2.30;;;;;;;;;;5033945;28;20040;-79
2023/08/13 08:13:07;;;;;;;4.13;2.50;;;;;;;;;;5020073;28;20030;-79
2023/08/13 08:15:33;;;;;;;3.67;2.10;;;;;;;;;;5047752;28;20029;-79
2023/08/13 08:17:58;;;;;;;3.60;2.50;;;;;;;;;;5036076;28;20010;-80
2023/08/13 08:20:23;;;;;;;2.40;2.20;;;;;;;;;;5024352;28;20044;-79
2023/08/13 08:22:49;;;;;;;4.43;2.83;;;;;;;;;;5040781;28;20141;-80
2023/08/13 08:25:14;;;;;;;2.50;2.30;;;;;;;;;;5037823;28;20076;-80
2023/08/13 08:27:39;;;;;;;6.97;2.53;;;;;;;;;;5041050;28;20037;-79
2023/08/13 08:30:06;;;;;;;2.13;2.00;;;;;;;;;;5036837;28;20099;-80
2023/08/13 08:32:31;;;;;;;3.92;2.17;;;;;;;;;;5039852;28;20380;-80
2023/08/13 08:34:57;;;;;;;3.90;2.20;;;;;;;;;;5035095;28;20039;-80
2023/08/13 08:37:22;;;;;;;2.72;1.90;;;;;;;;;;5026969;28;20507;-80
2023/08/13 08:39:47;;;;;;;4.65;2.72;;;;;;;;;;5036097;28;20049;-80
2023/08/13 08:42:13;;;;;;;4.45;2.10;;;;;;;;;;5016533;28;20104;-80
2023/08/13 08:44:43;;;;;;;3.17;2.63;;;;;;;;;;5043815;28;20480;-79
2023/08/13 08:47:08;;;;;;;2.72;2.53;;;;;;;;;;5041023;28;20033;-80
2023/08/13 08:49:34;;;;;;;2.35;2.22;;;;;;;;;;5032077;28;20029;-77
2023/08/13 08:52:00;;;;;;;3.53;2.58;;;;;;;;;;5019861;28;20030;-78
2023/08/13 08:54:25;;;;;;;4.13;2.83;;;;;;;;;;5018869;28;20037;-78
2023/08/13 08:56:50;;;;;;;4.32;2.45;;;;;;;;;;5019670;28;20025;-78
2023/08/13 08:59:16;;;;;;;2.67;2.47;;;;;;;;;;5034206;28;20556;-78
2023/08/13 09:01:41;;;;;;;2.70;2.50;;;;;;;;;;5024257;28;20025;-78
2023/08/13 09:04:07;;;;;;;3.63;2.65;;;;;;;;;;5013886;28;20026;-77
2023/08/13 09:07:00;;;;;;;3.88;2.25;;;;;;;;;;5034111;28;20637;-78
2023/08/13 09:09:26;;;;;;;3.40;2.35;;;;;;;;;;5029414;28;20081;-78
2023/08/13 09:11:53;;;;;;;3.25;2.30;;;;;;;;;;5014006;28;20028;-79
2023/08/13 09:14:19;;;;;;;4.53;2.28;;;;;;;;;;5025116;28;20125;-78
2023/08/13 09:16:49;;;;;;;7.57;2.60;;;;;;;;;;5029830;28;20527;-77
2023/08/13 09:19:15;;;;;;;6.50;2.80;;;;;;;;;;5031916;28;20034;-78
2023/08/13 09:21:52;;;;;;;2.83;2.60;;;;;;;;;;5034182;28;20040;-78
2023/08/13 09:24:18;;;;;;;4.40;2.58;;;;;;;;;;5022986;28;20056;-78
2023/08/13 09:26:44;;;;;;;5.63;2.72;;;;;;;;;;5010880;28;20443;-78
2023/08/13 09:29:10;;;;;;;2.72;2.42;;;;;;;;;;5017491;28;20021;-78
2023/08/13 09:31:36;;;;;;;5.13;2.75;;;;;;;;;;5034293;28;20030;-78
2023/08/13 09:34:02;;;;;;;3.75;2.83;;;;;;;;;;5020827;28;20033;-79
2023/08/13 09:36:28;;;;;;;4.28;2.60;;;;;;;;;;5059423;22;20132;-82
2023/08/13 09:38:54;;;;;;;3.75;2.60;;;;;;;;;;5041995;28;20053;-83
2023/08/13 09:41:20;;;;;;;2.60;2.40;;;;;;;;;;5047659;28;20132;-83
2023/08/13 09:43:49;;;;;;;3.80;2.47;;;;;;;;;;5035668;28;20474;-83
2023/08/13 09:46:20;;;;;;;3.85;2.50;;;;;;;;;;5044008;28;20040;-82
2023/08/13 09:48:53;;;;;;;4.38;2.88;;;;;;;;;;5037704;28;20046;-84
2023/08/13 09:51:28;;;;;;;2.40;2.20;;;;;;;;;;5042628;28;20136;-80
2023/08/13 09:53:59;;;;;;;4.88;2.38;;;;;;;;;;5048197;28;20027;-80
2023/08/13 09:56:28;;;;;;;5.75;2.60;;;;;;;;;;5020627;28;20037;-81
2023/08/13 09:58:54;;;;;;;2.83;2.10;;;;;;;;;;5043540;28;20089;-81
2023/08/13 10:01:20;;;;;;;2.90;2.20;;;;;;;;;;5036896;28;20088;-80
2023/08/13 10:03:45;;;;;;;3.67;2.35;;;;;;;;;;5045859;28;20087;-82
2023/08/13 10:06:12;;;;;;;3.90;2.22;;;;;;;;;;5045333;28;20024;-82
2023/08/13 10:08:37;;;;;;;3.22;2.38;;;;;;;;;;5039958;28;20474;-83
2023/08/13 10:11:04;;;;;;;3.17;2.38;;;;;;;;;;5042881;28;20030;-81
2023/08/13 10:13:30;;;;;;;4.05;2.63;;;;;;;;;;5033341;28;20022;-83
2023/08/13 10:15:55;;;;;;;3.53;2.47;;;;;;;;;;5042155;28;20041;-83
2023/08/13 10:18:22;;;;;;;3.15;2.40;;;;;;;;;;5023552;28;20056;-81
2023/08/13 10:20:48;;;;;;;4.65;2.70;;;;;;;;;;5041074;28;20104;-83
2023/08/13 10:23:13;;;;;;;5.80;3.08;;;;;;;;;;5045036;28;20061;-81
2023/08/13 10:25:39;;;;;;;3.58;2.63;;;;;;;;;;5041696;28;20045;-81
2023/08/13 10:28:31;;;;;;;3.25;2.65;;;;;;;;;;5044235;28;20040;-83
2023/08/13 10:31:21;;;;;;;6.43;2.50;;;;;;;;;;5039707;28;20133;-82
2023/08/13 10:33:46;;;;;;;2.95;2.40;;;;;;;;;;5032131;28;20112;-83
2023/08/13 10:36:11;;;;;;;2.65;2.42;;;;;;;;;;5039364;28;20048;-82
2023/08/13 10:38:38;;;;;;;2.63;2.30;;;;;;;;;;5024796;28;20030;-83
2023/08/13 10:41:06;;;;;;;5.20;2.67;;;;;;;;;;5029145;28;20033;-82
2023/08/13 10:43:33;;;;;;;2.65;2.40;;;;;;;;;;5026424;28;20044;-82
2023/08/13 10:45:58;;;;;;;4.90;2.40;;;;;;;;;;5034858;28;20030;-81
2023/08/13 10:48:30;;;;;;;3.63;2.42;;;;;;;;;;5041103;28;20033;-82
2023/08/13 10:50:57;;;;;;;2.80;2.35;;;;;;;;;;5044607;28;20049;-81
2023/08/13 10:53:26;;;;;;;2.50;2.30;;;;;;;;;;5052950;28;20419;-81
2023/08/13 10:56:00;;;;;;;4.20;2.97;;;;;;;;;;5051155;28;20036;-81
2023/08/13 10:58:28;;;;;;;5.80;2.60;;;;;;;;;;5042348;28;20072;-81
2023/08/13 11:01:10;;;;;;;3.10;2.67;;;;;;;;;;5042261;28;20060;-81
2023/08/13 11:03:47;;;;;;;6.15;2.92;;;;;;;;;;5056719;28;20033;-80
2023/08/13 11:06:14;;;;;;;4.50;2.67;;;;;;;;;;5053569;28;20051;-82
2023/08/13 11:08:40;;;;;;;3.60;2.60;;;;;;;;;;5056585;28;20044;-81
2023/08/13 11:11:06;;;;;;;3.13;2.60;;;;;;;;;;5032261;28;20120;-82
2023/08/13 11:13:32;;;;;;;2.80;2.60;;;;;;;;;;5051859;28;20096;-82
2023/08/13 11:15:57;;;;;;;4.75;2.72;;;;;;;;;;5048458;28;20045;-81
2023/08/13 11:18:22;;;;;;;13.77;2.88;;;;;;;;;;5055940;28;20038;-82
2023/08/13 11:20:49;;;;;;;3.40;2.47;;;;;;;;;;5052055;28;20589;-81
2023/08/13 11:23:16;;;;;;;4.72;2.60;;;;;;;;;;5051262;28;20555;-81
2023/08/13 11:25:43;;;;;;;3.75;2.65;;;;;;;;;;5057137;28;20040;-80
2023/08/13 11:28:09;;;;;;;4.32;2.65;;;;;;;;;;5047240;28;20098;-80
2023/08/13 11:30:39;;;;;;;4.20;2.85;;;;;;;;;;5047115;28;20071;-82
2023/08/13 11:33:04;;;;;;;5.28;2.72;;;;;;;;;;5049769;28;20026;-82
2023/08/13 11:35:30;;;;;;;3.17;2.47;;;;;;;;;;5053944;28;20032;-80
2023/08/13 11:37:55;;;;;;;4.13;2.58;;;;;;;;;;5041044;28;20493;-79
2023/08/13 11:40:21;;;;;;;4.53;2.45;;;;;;;;;;5040999;28;20053;-82
2023/08/13 11:43:00;;;;;;;3.10;2.70;;;;;;;;;;5040953;28;20041;-80
2023/08/13 11:45:29;;;;;;;4.53;2.60;;;;;;;;;;5041035;28;20029;-82
2023/08/13 11:48:16;;;;;;;3.03;2.35;;;;;;;;;;5041612;28;20025;-79
2023/08/13 11:50:47;;;;;;;3.08;2.50;;;;;;;;;;5023213;28;20037;-82
2023/08/13 11:53:14;;;;;;;4.60;2.50;;;;;;;;;;5039940;28;20407;-82
2023/08/13 11:55:42;;;;;;;3.72;2.65;;;;;;;;;;5040173;28;20085;-80
2023/08/13 11:58:08;;;;;;;6.30;3.10;;;;;;;;;;5039779;28;20609;-81
2023/08/13 12:00:34;;;;;;;3.50;2.70;;;;;;;;;;5040551;28;20064;-80
2023/08/13 12:03:00;;;;;;;2.70;2.40;;;;;;;;;;5041063;28;20029;-82
2023/08/13 12:05:27;;;;;;;5.45;2.72;;;;;;;;;;5040766;28;20041;-81
2023/08/13 12:07:55;;;;;;;3.95;2.45;;;;;;;;;;5040338;28;20029;-79
2023/08/13 12:10:20;;;;;;;3.72;2.42;;;;;;;;;;5039674;28;20034;-82
2023/08/13 12:12:46;;;;;;;3.40;2.70;;;;;;;;;;5040425;28;20025;-82
2023/08/13 12:15:11;;;;;;;3.70;2.75;;;;;;;;;;5040107;28;20025;-81
2023/08/13 12:17:36;;;;;;;5.38;2.45;;;;;;;;;;5040422;28;20025;-81
2023/08/13 12:20:02;;;;;;;2.90;2.60;;;;;;;;;;5040531;28;20033;-82
2023/08/13 12:22:27;;;;;;;5.18;2.67;;;;;;;;;;5039601;28;20037;-82
2023/08/13 12:24:52;;;;;;;4.85;2.78;;;;;;;;;;5040389;28;20030;-82
2023/08/13 12:27:17;;;;;;;4.90;2.70;;;;;;;;;;5041254;28;20024;-83
2023/08/13 12:29:43;;;;;;;5.63;2.67;;;;;;;;;;5024177;28;20020;-83
2023/08/13 12:32:08;;;;;;;4.50;3.10;;;;;;;;;;5042745;28;20028;-78
2023/08/13 12:34:33;;;;;;;5.80;2.55;;;;;;;;;;5032777;28;20037;-78
2023/08/13 12:36:59;;;;;;;4.00;2.83;;;;;;;;;;5054839;28;20025;-82
2023/08/13 12:39:24;;;;;;;4.85;2.50;;;;;;;;;;5059338;28;20049;-82
2023/08/13 12:41:49;;;;;;;4.32;2.60;;;;;;;;;;5060028;28;20024;-82
2023/08/13 12:44:15;;;;;;;5.38;2.90;;;;;;;;;;5059633;28;20033;-80
2023/08/13 12:46:40;;;;;;;3.63;2.90;;;;;;;;;;5058823;28;20068;-79
2023/08/13 12:49:05;;;;;;;3.95;2.80;;;;;;;;;;5059939;28;20037;-81
2023/08/13 12:51:31;;;;;;;5.32;2.63;;;;;;;;;;5059373;28;20495;-82
2023/08/13 12:53:56;;;;;;;5.95;3.10;;;;;;;;;;5040652;28;20444;-81
2023/08/13 12:56:21;;;;;;;2.72;2.47;;;;;;;;;;5039150;28;20033;-82
2023/08/13 12:58:48;;;;;;;4.88;2.90;;;;;;;;;;5040041;28;20088;-82
2023/08/13 13:01:13;;;;;;;4.68;2.45;;;;;;;;;;5039356;28;20029;-84
2023/08/13 13:03:38;;;;;;;2.80;2.50;;;;;;;;;;5038541;28;20116;-83
2023/08/13 13:06:04;;;;;;;3.78;2.78;;;;;;;;;;5038834;28;20091;-83
2023/08/13 13:08:29;;;;;;;3.50;2.72;;;;;;;;;;5022545;28;20041;-81
2023/08/13 13:10:54;;;;;;;7.32;2.90;;;;;;;;;;5039454;28;20305;-82
2023/08/13 13:13:20;;;;;;;3.08;2.85;;;;;;;;;;5040210;28;20444;-82
2023/08/13 13:15:45;;;;;;;6.32;2.58;;;;;;;;;;5038162;28;20038;-83
2023/08/13 13:18:11;;;;;;;5.70;2.83;;;;;;;;;;5038715;28;20032;-82
2023/08/13 13:20:36;;;;;;;3.90;2.65;;;;;;;;;;5039445;28;20075;-81
2023/08/13 13:23:02;;;;;;;4.93;2.97;;;;;;;;;;5037560;28;20033;-82
2023/08/13 13:25:28;;;;;;;4.45;2.83;;;;;;;;;;5038043;28;20033;-82
2023/08/13 13:27:53;;;;;;;3.97;2.80;;;;;;;;;;5038410;28;20458;-82
2023/08/13 13:30:19;;;;;;;4.65;2.90;;;;;;;;;;5037631;28;20036;-79
2023/08/13 13:32:45;;;;;;;3.38;3.03;;;;;;;;;;5039724;28;20100;-83
2023/08/13 13:35:10;;;;;;;4.05;3.05;;;;;;;;;;5040110;28;20053;-83
2023/08/13 13:37:35;;;;;;;5.45;2.70;;;;;;;;;;5044755;28;20083;-82
2023/08/13 13:40:01;;;;;;;4.93;2.83;;;;;;;;;;5037799;28;20097;-82
2023/08/13 13:42:44;;;;;;;4.95;2.88;;;;;;;;;;5043203;28;20108;-84
2023/08/13 13:45:10;;;;;;;4.78;3.28;;;;;;;;;;5022720;28;20029;-82
2023/08/13 13:47:38;;;;;;;4.60;2.92;;;;;;;;;;5044573;28;20552;-83
2023/08/13 13:50:04;;;;;;;7.95;2.90;;;;;;;;;;5038324;28;20484;-80
2023/08/13 13:52:32;;;;;;;3.60;2.92;;;;;;;;;;5041825;28;20029;-80
2023/08/13 13:54:57;;;;;;;3.78;3.13;;;;;;;;;;5035215;28;20026;-82
2023/08/13 13:57:23;;;;;;;3.40;2.83;;;;;;;;;;5041289;28;20048;-83
2023/08/13 13:59:49;;;;;;;5.20;2.80;;;;;;;;;;5042439;28;20060;-83
2023/08/13 14:02:15;;;;;;;3.42;2.72;;;;;;;;;;5024851;28;20462;-83
2023/08/13 14:04:40;;;;;;;4.30;2.67;;;;;;;;;;5023657;28;20037;-84
2023/08/13 14:07:06;;;;;;;7.95;2.63;;;;;;;;;;5039658;28;20074;-84
2023/08/13 14:09:51;;;;;;;4.28;2.58;;;;;;;;;;5043133;28;20033;-83
2023/08/13 14:12:17;;;;;;;7.38;2.80;;;;;;;;;;5023880;28;20033;-83
2023/08/13 14:14:42;;;;;;;5.22;3.10;;;;;;;;;;5048397;28;20481;-84
2023/08/13 14:17:07;;;;;;;5.35;3.30;;;;;;;;;;5041632;28;20025;-83
2023/08/13 14:19:34;;;;;;;3.92;2.70;;;;;;;;;;5042247;28;20068;-83
2023/08/13 14:21:59;;;;;;;8.38;2.58;;;;;;;;;;5040939;28;20499;-83
2023/08/13 14:24:24;;;;;;;5.18;2.90;;;;;;;;;;5041521;28;20534;-83
2023/08/13 14:26:50;;;;;;;7.75;3.20;;;;;;;;;;5041555;28;20034;-83
2023/08/13 14:29:17;;;;;;;5.40;3.08;;;;;;;;;;5043092;28;21304;-82
2023/08/13 14:31:43;;;;;;;4.63;2.90;;;;;;;;;;5045059;28;20045;-83
2023/08/13 14:34:08;;;;;;;4.95;3.20;;;;;;;;;;5037970;28;20510;-84